sensor_id;sensor_type;location;lat;lon;timestamp;temperature;humidity
25112;DHT22;13092;51.996;4.458;2022-10-04T00:00:08;14.40;99.90
25112;DHT22;13092;51.996;4.458;2022-10-04T00:02:37;14.40;99.90
25112;DHT22;13092;51.996;4.458;2022-10-04T00:05:10;14.40;99.90
25112;DHT22;13092;51.996;4.458;2022-10-04T00:07:44;14.40;99.90
25112;DHT22;13092;51.996;4.458;2022-10-04T00:10:18;14.40;99.90
25112;DHT22;13092;51.996;4.458;2022-10-04T00:12:54;14.40;99.90
25112;DHT22;13092;51.996;4.458;2022-10-04T00:15:28;14.40;99.90
25112;DHT22;13092;51.996;4.458;2022-10-04T00:18:06;14.30;99.90
25112;DHT22;13092;51.996;4.458;2022-10-04T00:21:03;14.30;99.90
25112;DHT22;13092;51.996;4.458;2022-10-04T00:23:43;14.30;99.90
25112;DHT22;13092;51.996;4.458;2022-10-04T00:29:38;14.30;99.90
25112;DHT22;13092;51.996;4.458;2022-10-04T00:32:24;14.20;99.90
25112;DHT22;13092;51.996;4.458;2022-10-04T00:34:54;14.20;99.90
25112;DHT22;13092;51.996;4.458;2022-10-04T00:37:23;14.20;99.90
25112;DHT22;13092;51.996;4.458;2022-10-04T00:40:02;14.20;99.90
25112;DHT22;13092;51.996;4.458;2022-10-04T00:42:45;14.20;99.90
25112;DHT22;13092;51.996;4.458;2022-10-04T00:45:30;14.20;99.90
25112;DHT22;13092;51.996;4.458;2022-10-04T00:48:19;14.10;99.90
25112;DHT22;13092;51.996;4.458;2022-10-04T00:51:01;14.20;99.90
25112;DHT22;13092;51.996;4.458;2022-10-04T00:53:53;14.10;99.90
25112;DHT22;13092;51.996;4.458;2022-10-04T00:56:29;14.10;99.90
25112;DHT22;13092;51.996;4.458;2022-10-04T00:59:17;14.10;99.90
25112;DHT22;13092;51.996;4.458;2022-10-04T01:01:50;14.10;99.90
25112;DHT22;13092;51.996;4.458;2022-10-04T01:04:37;14.10;99.90
25112;DHT22;13092;51.996;4.458;2022-10-04T01:07:07;14.00;99.90
25112;DHT22;13092;51.996;4.458;2022-10-04T01:09:43;14.00;99.90
25112;DHT22;13092;51.996;4.458;2022-10-04T01:12:16;14.00;99.90
25112;DHT22;13092;51.996;4.458;2022-10-04T01:14:54;14.00;99.90
25112;DHT22;13092;51.996;4.458;2022-10-04T01:17:26;14.10;99.90
25112;DHT22;13092;51.996;4.458;2022-10-04T01:19:56;13.80;99.90
25112;DHT22;13092;51.996;4.458;2022-10-04T01:22:48;13.70;99.90
25112;DHT22;13092;51.996;4.458;2022-10-04T01:25:42;13.80;99.90
25112;DHT22;13092;51.996;4.458;2022-10-04T01:28:11;13.80;99.90
25112;DHT22;13092;51.996;4.458;2022-10-04T01:30:41;13.60;99.90
25112;DHT22;13092;51.996;4.458;2022-10-04T01:33:11;13.80;99.90
25112;DHT22;13092;51.996;4.458;2022-10-04T01:35:39;13.70;99.90
25112;DHT22;13092;51.996;4.458;2022-10-04T01:38:09;13.70;99.90
25112;DHT22;13092;51.996;4.458;2022-10-04T01:40:43;13.60;99.90
25112;DHT22;13092;51.996;4.458;2022-10-04T01:43:15;13.60;99.90
25112;DHT22;13092;51.996;4.458;2022-10-04T01:45:52;13.60;99.90
25112;DHT22;13092;51.996;4.458;2022-10-04T01:48:24;13.60;99.90
25112;DHT22;13092;51.996;4.458;2022-10-04T01:50:57;13.60;99.90
25112;DHT22;13092;51.996;4.458;2022-10-04T01:53:29;13.60;99.90
25112;DHT22;13092;51.996;4.458;2022-10-04T01:56:04;13.50;99.90
25112;DHT22;13092;51.996;4.458;2022-10-04T01:58:40;13.60;99.90
25112;DHT22;13092;51.996;4.458;2022-10-04T02:01:11;13.60;99.90
25112;DHT22;13092;51.996;4.458;2022-10-04T02:03:42;13.60;99.90
25112;DHT22;13092;51.996;4.458;2022-10-04T02:06:13;13.50;99.90
25112;DHT22;13092;51.996;4.458;2022-10-04T02:08:47;13.60;99.90
25112;DHT22;13092;51.996;4.458;2022-10-04T02:11:17;13.50;99.90
25112;DHT22;13092;51.996;4.458;2022-10-04T02:13:49;13.50;99.90
25112;DHT22;13092;51.996;4.458;2022-10-04T02:16:19;13.50;99.90
25112;DHT22;13092;51.996;4.458;2022-10-04T02:18:49;13.50;99.90
25112;DHT22;13092;51.996;4.458;2022-10-04T02:21:18;13.50;99.90
25112;DHT22;13092;51.996;4.458;2022-10-04T02:23:50;13.40;99.90
25112;DHT22;13092;51.996;4.458;2022-10-04T02:26:19;13.40;99.90
25112;DHT22;13092;51.996;4.458;2022-10-04T02:28:47;13.40;99.90
25112;DHT22;13092;51.996;4.458;2022-10-04T02:31:19;13.20;99.90
25112;DHT22;13092;51.996;4.458;2022-10-04T02:34:06;13.30;99.90
25112;DHT22;13092;51.996;4.458;2022-10-04T02:36:35;13.40;99.90
25112;DHT22;13092;51.996;4.458;2022-10-04T02:39:11;13.30;99.90
25112;DHT22;13092;51.996;4.458;2022-10-04T02:41:43;13.30;99.90
25112;DHT22;13092;51.996;4.458;2022-10-04T02:44:17;13.50;99.90
25112;DHT22;13092;51.996;4.458;2022-10-04T02:46:50;13.20;99.90
25112;DHT22;13092;51.996;4.458;2022-10-04T02:49:27;13.30;99.90
25112;DHT22;13092;51.996;4.458;2022-10-04T02:52:02;13.30;99.90
25112;DHT22;13092;51.996;4.458;2022-10-04T02:54:37;13.20;99.90
25112;DHT22;13092;51.996;4.458;2022-10-04T02:57:12;13.20;99.90
25112;DHT22;13092;51.996;4.458;2022-10-04T02:59:41;13.20;99.90
25112;DHT22;13092;51.996;4.458;2022-10-04T03:02:21;13.30;99.90
25112;DHT22;13092;51.996;4.458;2022-10-04T03:04:59;13.20;99.90
25112;DHT22;13092;51.996;4.458;2022-10-04T03:07:30;13.20;99.90
25112;DHT22;13092;51.996;4.458;2022-10-04T03:10:01;13.20;99.90
25112;DHT22;13092;51.996;4.458;2022-10-04T03:12:30;13.20;99.90
25112;DHT22;13092;51.996;4.458;2022-10-04T03:14:58;13.20;99.90
25112;DHT22;13092;51.996;4.458;2022-10-04T03:17:26;13.10;99.90
25112;DHT22;13092;51.996;4.458;2022-10-04T03:19:55;13.10;99.90
25112;DHT22;13092;51.996;4.458;2022-10-04T03:22:24;13.10;99.90
25112;DHT22;13092;51.996;4.458;2022-10-04T03:24:54;13.00;99.90
25112;DHT22;13092;51.996;4.458;2022-10-04T03:27:28;13.10;99.90
25112;DHT22;13092;51.996;4.458;2022-10-04T03:29:58;13.00;99.90
25112;DHT22;13092;51.996;4.458;2022-10-04T03:32:28;13.00;99.90
25112;DHT22;13092;51.996;4.458;2022-10-04T03:34:59;13.00;99.90
25112;DHT22;13092;51.996;4.458;2022-10-04T03:37:32;13.10;99.90
25112;DHT22;13092;51.996;4.458;2022-10-04T03:40:02;13.00;99.90
25112;DHT22;13092;51.996;4.458;2022-10-04T03:42:34;13.00;99.90
25112;DHT22;13092;51.996;4.458;2022-10-04T03:45:06;13.00;99.90
25112;DHT22;13092;51.996;4.458;2022-10-04T03:47:41;13.00;99.90
25112;DHT22;13092;51.996;4.458;2022-10-04T03:50:14;13.00;99.90
25112;DHT22;13092;51.996;4.458;2022-10-04T03:52:47;13.00;99.90
25112;DHT22;13092;51.996;4.458;2022-10-04T03:55:17;13.00;99.90
25112;DHT22;13092;51.996;4.458;2022-10-04T03:57:47;13.00;99.90
25112;DHT22;13092;51.996;4.458;2022-10-04T04:00:16;13.00;99.90
25112;DHT22;13092;51.996;4.458;2022-10-04T04:02:48;13.00;99.90
25112;DHT22;13092;51.996;4.458;2022-10-04T04:05:21;13.00;99.90
25112;DHT22;13092;51.996;4.458;2022-10-04T04:07:57;12.90;99.90
25112;DHT22;13092;51.996;4.458;2022-10-04T04:10:29;12.90;99.90
25112;DHT22;13092;51.996;4.458;2022-10-04T04:13:02;13.00;99.90
25112;DHT22;13092;51.996;4.458;2022-10-04T04:15:33;12.90;99.90
25112;DHT22;13092;51.996;4.458;2022-10-04T04:18:03;12.90;99.90
25112;DHT22;13092;51.996;4.458;2022-10-04T04:20:33;12.90;99.90
25112;DHT22;13092;51.996;4.458;2022-10-04T04:23:06;12.90;99.90
25112;DHT22;13092;51.996;4.458;2022-10-04T04:25:41;12.90;99.90
25112;DHT22;13092;51.996;4.458;2022-10-04T04:28:22;12.80;99.90
25112;DHT22;13092;51.996;4.458;2022-10-04T04:30:56;12.80;99.90
25112;DHT22;13092;51.996;4.458;2022-10-04T04:33:30;12.80;99.90
25112;DHT22;13092;51.996;4.458;2022-10-04T04:36:05;12.80;99.90
25112;DHT22;13092;51.996;4.458;2022-10-04T04:38:33;12.80;99.90
25112;DHT22;13092;51.996;4.458;2022-10-04T04:41:22;12.90;99.90
25112;DHT22;13092;51.996;4.458;2022-10-04T04:43:52;12.80;99.90
25112;DHT22;13092;51.996;4.458;2022-10-04T04:46:20;12.80;99.90
25112;DHT22;13092;51.996;4.458;2022-10-04T04:48:57;12.80;99.90
25112;DHT22;13092;51.996;4.458;2022-10-04T04:51:30;12.80;99.90
25112;DHT22;13092;51.996;4.458;2022-10-04T04:54:02;12.80;99.90
25112;DHT22;13092;51.996;4.458;2022-10-04T04:56:33;12.80;99.90
25112;DHT22;13092;51.996;4.458;2022-10-04T04:59:06;12.80;99.90
25112;DHT22;13092;51.996;4.458;2022-10-04T05:01:38;12.80;99.90
25112;DHT22;13092;51.996;4.458;2022-10-04T05:04:17;12.80;99.90
25112;DHT22;13092;51.996;4.458;2022-10-04T05:06:46;12.80;99.90
25112;DHT22;13092;51.996;4.458;2022-10-04T05:09:22;12.80;99.90
25112;DHT22;13092;51.996;4.458;2022-10-04T05:11:53;12.90;99.90
25112;DHT22;13092;51.996;4.458;2022-10-04T05:14:26;12.80;99.90
25112;DHT22;13092;51.996;4.458;2022-10-04T05:16:57;12.90;99.90
25112;DHT22;13092;51.996;4.458;2022-10-04T05:19:26;12.80;99.90
25112;DHT22;13092;51.996;4.458;2022-10-04T05:21:58;12.80;99.90
25112;DHT22;13092;51.996;4.458;2022-10-04T05:24:30;12.70;99.90
25112;DHT22;13092;51.996;4.458;2022-10-04T05:27:00;12.70;99.90
25112;DHT22;13092;51.996;4.458;2022-10-04T05:29:32;12.70;99.90
25112;DHT22;13092;51.996;4.458;2022-10-04T05:32:08;12.70;99.90
25112;DHT22;13092;51.996;4.458;2022-10-04T05:34:41;12.70;99.90
25112;DHT22;13092;51.996;4.458;2022-10-04T05:37:23;12.60;99.90
25112;DHT22;13092;51.996;4.458;2022-10-04T05:40:02;12.70;99.90
25112;DHT22;13092;51.996;4.458;2022-10-04T05:42:36;12.60;99.90
25112;DHT22;13092;51.996;4.458;2022-10-04T05:45:17;12.60;99.90
25112;DHT22;13092;51.996;4.458;2022-10-04T05:47:47;12.70;99.90
25112;DHT22;13092;51.996;4.458;2022-10-04T05:50:18;12.70;99.90
25112;DHT22;13092;51.996;4.458;2022-10-04T05:52:49;12.60;99.90
25112;DHT22;13092;51.996;4.458;2022-10-04T05:55:26;12.60;99.90
25112;DHT22;13092;51.996;4.458;2022-10-04T05:58:27;12.50;99.90
25112;DHT22;13092;51.996;4.458;2022-10-04T06:01:11;12.50;99.90
25112;DHT22;13092;51.996;4.458;2022-10-04T06:03:52;12.50;99.90
25112;DHT22;13092;51.996;4.458;2022-10-04T06:06:30;12.40;99.90
25112;DHT22;13092;51.996;4.458;2022-10-04T06:09:08;12.40;99.90
25112;DHT22;13092;51.996;4.458;2022-10-04T06:11:47;12.40;99.90
25112;DHT22;13092;51.996;4.458;2022-10-04T06:14:33;12.40;99.90
25112;DHT22;13092;51.996;4.458;2022-10-04T06:17:20;12.40;99.90
25112;DHT22;13092;51.996;4.458;2022-10-04T06:20:29;12.30;99.90
25112;DHT22;13092;51.996;4.458;2022-10-04T06:23:12;12.40;99.90
25112;DHT22;13092;51.996;4.458;2022-10-04T06:25:45;12.40;99.90
25112;DHT22;13092;51.996;4.458;2022-10-04T06:28:17;12.40;99.90
25112;DHT22;13092;51.996;4.458;2022-10-04T06:31:11;12.40;99.90
25112;DHT22;13092;51.996;4.458;2022-10-04T06:33:58;12.40;99.90
25112;DHT22;13092;51.996;4.458;2022-10-04T06:36:40;12.40;99.90
25112;DHT22;13092;51.996;4.458;2022-10-04T06:39:37;12.30;99.90
25112;DHT22;13092;51.996;4.458;2022-10-04T06:42:33;12.30;99.90
25112;DHT22;13092;51.996;4.458;2022-10-04T06:45:18;12.40;99.90
25112;DHT22;13092;51.996;4.458;2022-10-04T06:48:04;12.40;99.90
25112;DHT22;13092;51.996;4.458;2022-10-04T06:50:41;12.40;99.90
25112;DHT22;13092;51.996;4.458;2022-10-04T06:53:24;12.40;99.90
25112;DHT22;13092;51.996;4.458;2022-10-04T06:56:07;12.50;99.90
25112;DHT22;13092;51.996;4.458;2022-10-04T06:58:55;12.40;99.90
25112;DHT22;13092;51.996;4.458;2022-10-04T07:01:28;12.40;99.90
25112;DHT22;13092;51.996;4.458;2022-10-04T07:04:02;12.50;99.90
25112;DHT22;13092;51.996;4.458;2022-10-04T07:06:40;12.60;99.90
25112;DHT22;13092;51.996;4.458;2022-10-04T07:09:17;12.60;99.90
25112;DHT22;13092;51.996;4.458;2022-10-04T07:11:52;12.70;99.90
25112;DHT22;13092;51.996;4.458;2022-10-04T07:14:26;12.70;99.90
25112;DHT22;13092;51.996;4.458;2022-10-04T07:17:00;12.70;99.90
25112;DHT22;13092;51.996;4.458;2022-10-04T07:19:33;12.80;99.90
25112;DHT22;13092;51.996;4.458;2022-10-04T07:22:12;12.90;99.90
25112;DHT22;13092;51.996;4.458;2022-10-04T07:24:47;12.90;99.90
25112;DHT22;13092;51.996;4.458;2022-10-04T07:27:22;12.90;99.90
25112;DHT22;13092;51.996;4.458;2022-10-04T07:29:53;13.00;99.90
25112;DHT22;13092;51.996;4.458;2022-10-04T07:32:26;13.00;99.90
25112;DHT22;13092;51.996;4.458;2022-10-04T07:35:00;13.10;99.90
25112;DHT22;13092;51.996;4.458;2022-10-04T07:37:35;13.10;99.90
25112;DHT22;13092;51.996;4.458;2022-10-04T07:40:06;13.20;99.90
25112;DHT22;13092;51.996;4.458;2022-10-04T07:42:43;13.30;99.90
25112;DHT22;13092;51.996;4.458;2022-10-04T07:45:18;13.20;99.90
25112;DHT22;13092;51.996;4.458;2022-10-04T07:48:01;13.30;99.90
25112;DHT22;13092;51.996;4.458;2022-10-04T07:50:36;13.40;99.90
25112;DHT22;13092;51.996;4.458;2022-10-04T07:53:14;13.40;99.90
25112;DHT22;13092;51.996;4.458;2022-10-04T07:55:50;13.30;99.90
25112;DHT22;13092;51.996;4.458;2022-10-04T07:58:40;13.30;99.90
25112;DHT22;13092;51.996;4.458;2022-10-04T08:01:21;13.40;99.90
25112;DHT22;13092;51.996;4.458;2022-10-04T08:04:00;13.50;99.90
25112;DHT22;13092;51.996;4.458;2022-10-04T08:06:33;13.40;99.90
25112;DHT22;13092;51.996;4.458;2022-10-04T08:12:10;13.40;99.90
25112;DHT22;13092;51.996;4.458;2022-10-04T08:14:52;13.60;99.90
25112;DHT22;13092;51.996;4.458;2022-10-04T08:17:38;13.60;99.90
25112;DHT22;13092;51.996;4.458;2022-10-04T08:20:23;13.80;99.90
25112;DHT22;13092;51.996;4.458;2022-10-04T08:23:04;13.80;99.90
25112;DHT22;13092;51.996;4.458;2022-10-04T08:25:41;13.70;99.90
25112;DHT22;13092;51.996;4.458;2022-10-04T08:28:22;14.00;99.90
25112;DHT22;13092;51.996;4.458;2022-10-04T08:31:21;13.90;99.90
25112;DHT22;13092;51.996;4.458;2022-10-04T08:34:02;14.00;99.90
25112;DHT22;13092;51.996;4.458;2022-10-04T08:36:44;14.10;99.90
25112;DHT22;13092;51.996;4.458;2022-10-04T08:39:34;14.10;99.90
25112;DHT22;13092;51.996;4.458;2022-10-04T08:42:30;14.10;99.90
25112;DHT22;13092;51.996;4.458;2022-10-04T08:48:39;14.20;99.90
25112;DHT22;13092;51.996;4.458;2022-10-04T08:51:36;14.30;99.90
25112;DHT22;13092;51.996;4.458;2022-10-04T08:54:37;14.30;99.90
25112;DHT22;13092;51.996;4.458;2022-10-04T08:57:34;14.30;99.90
25112;DHT22;13092;51.996;4.458;2022-10-04T09:00:12;14.40;99.90
25112;DHT22;13092;51.996;4.458;2022-10-04T09:03:26;14.50;99.90
25112;DHT22;13092;51.996;4.458;2022-10-04T09:06:01;14.50;99.90
25112;DHT22;13092;51.996;4.458;2022-10-04T09:12:13;14.60;99.90
25112;DHT22;13092;51.996;4.458;2022-10-04T09:15:17;14.70;99.90
25112;DHT22;13092;51.996;4.458;2022-10-04T09:17:53;14.70;99.90
25112;DHT22;13092;51.996;4.458;2022-10-04T09:20:27;14.90;99.90
25112;DHT22;13092;51.996;4.458;2022-10-04T09:23:16;14.80;99.90
25112;DHT22;13092;51.996;4.458;2022-10-04T09:26:00;14.90;99.90
25112;DHT22;13092;51.996;4.458;2022-10-04T09:32:07;15.10;99.90
25112;DHT22;13092;51.996;4.458;2022-10-04T09:34:50;15.20;99.90
25112;DHT22;13092;51.996;4.458;2022-10-04T09:37:35;15.30;99.90
25112;DHT22;13092;51.996;4.458;2022-10-04T09:40:38;15.40;99.90
25112;DHT22;13092;51.996;4.458;2022-10-04T09:46:27;15.50;99.90
25112;DHT22;13092;51.996;4.458;2022-10-04T09:49:07;15.60;99.90
25112;DHT22;13092;51.996;4.458;2022-10-04T09:52:09;15.60;99.90
25112;DHT22;13092;51.996;4.458;2022-10-04T09:54:52;15.70;99.90
25112;DHT22;13092;51.996;4.458;2022-10-04T09:57:30;15.70;99.90
25112;DHT22;13092;51.996;4.458;2022-10-04T10:00:14;15.80;99.90
25112;DHT22;13092;51.996;4.458;2022-10-04T10:03:25;15.90;99.90
25112;DHT22;13092;51.996;4.458;2022-10-04T10:06:21;16.00;99.90
25112;DHT22;13092;51.996;4.458;2022-10-04T10:09:08;16.10;99.90
25112;DHT22;13092;51.996;4.458;2022-10-04T10:11:48;16.20;99.90
25112;DHT22;13092;51.996;4.458;2022-10-04T10:15:03;16.30;99.90
25112;DHT22;13092;51.996;4.458;2022-10-04T10:17:40;16.40;99.90
25112;DHT22;13092;51.996;4.458;2022-10-04T10:20:25;16.50;99.90
25112;DHT22;13092;51.996;4.458;2022-10-04T10:23:21;16.70;99.90
25112;DHT22;13092;51.996;4.458;2022-10-04T10:26:15;16.70;99.90
25112;DHT22;13092;51.996;4.458;2022-10-04T10:29:26;16.70;99.90
25112;DHT22;13092;51.996;4.458;2022-10-04T10:32:11;16.90;99.90
25112;DHT22;13092;51.996;4.458;2022-10-04T10:35:05;17.00;99.90
25112;DHT22;13092;51.996;4.458;2022-10-04T10:37:50;16.90;99.90
25112;DHT22;13092;51.996;4.458;2022-10-04T10:40:40;17.00;99.90
25112;DHT22;13092;51.996;4.458;2022-10-04T10:43:33;17.00;99.90
25112;DHT22;13092;51.996;4.458;2022-10-04T10:46:19;17.10;99.90
25112;DHT22;13092;51.996;4.458;2022-10-04T10:49:07;17.10;99.90
25112;DHT22;13092;51.996;4.458;2022-10-04T10:51:56;17.30;99.90
25112;DHT22;13092;51.996;4.458;2022-10-04T10:54:48;17.40;99.90
25112;DHT22;13092;51.996;4.458;2022-10-04T10:57:38;17.50;99.90
25112;DHT22;13092;51.996;4.458;2022-10-04T11:00:18;17.60;99.90
25112;DHT22;13092;51.996;4.458;2022-10-04T11:03:15;17.70;99.90
25112;DHT22;13092;51.996;4.458;2022-10-04T11:06:13;17.90;99.90
25112;DHT22;13092;51.996;4.458;2022-10-04T11:09:08;18.10;99.90
25112;DHT22;13092;51.996;4.458;2022-10-04T11:11:57;18.20;99.90
25112;DHT22;13092;51.996;4.458;2022-10-04T11:14:54;18.20;99.90
25112;DHT22;13092;51.996;4.458;2022-10-04T11:24:16;18.40;99.90
25112;DHT22;13092;51.996;4.458;2022-10-04T11:27:03;18.50;99.90
25112;DHT22;13092;51.996;4.458;2022-10-04T11:29:57;18.60;99.90
25112;DHT22;13092;51.996;4.458;2022-10-04T11:36:27;18.50;99.90
25112;DHT22;13092;51.996;4.458;2022-10-04T11:39:22;18.40;99.90
25112;DHT22;13092;51.996;4.458;2022-10-04T11:42:03;18.40;99.90
25112;DHT22;13092;51.996;4.458;2022-10-04T11:45:07;18.30;99.90
25112;DHT22;13092;51.996;4.458;2022-10-04T11:47:55;18.30;99.90
25112;DHT22;13092;51.996;4.458;2022-10-04T11:50:36;18.30;99.90
25112;DHT22;13092;51.996;4.458;2022-10-04T11:56:42;18.40;99.90
25112;DHT22;13092;51.996;4.458;2022-10-04T11:59:33;18.50;99.90
25112;DHT22;13092;51.996;4.458;2022-10-04T12:05:44;18.70;99.90
25112;DHT22;13092;51.996;4.458;2022-10-04T12:08:29;18.70;99.90
25112;DHT22;13092;51.996;4.458;2022-10-04T12:11:41;18.70;99.90
25112;DHT22;13092;51.996;4.458;2022-10-04T12:15:05;18.80;99.90
25112;DHT22;13092;51.996;4.458;2022-10-04T12:24:04;18.90;99.90
25112;DHT22;13092;51.996;4.458;2022-10-04T12:26:53;18.90;99.90
25112;DHT22;13092;51.996;4.458;2022-10-04T12:32:27;19.20;99.90
25112;DHT22;13092;51.996;4.458;2022-10-04T12:35:07;19.10;99.90
25112;DHT22;13092;51.996;4.458;2022-10-04T12:38:04;19.10;99.90
25112;DHT22;13092;51.996;4.458;2022-10-04T12:40:38;19.20;99.90
25112;DHT22;13092;51.996;4.458;2022-10-04T12:43:11;19.20;99.90
25112;DHT22;13092;51.996;4.458;2022-10-04T12:45:50;19.20;99.90
25112;DHT22;13092;51.996;4.458;2022-10-04T12:48:30;19.30;99.90
25112;DHT22;13092;51.996;4.458;2022-10-04T12:51:16;19.40;99.90
25112;DHT22;13092;51.996;4.458;2022-10-04T12:53:50;19.30;99.90
25112;DHT22;13092;51.996;4.458;2022-10-04T12:56:41;19.50;99.90
25112;DHT22;13092;51.996;4.458;2022-10-04T12:59:28;19.50;99.90
25112;DHT22;13092;51.996;4.458;2022-10-04T13:02:10;19.60;99.90
25112;DHT22;13092;51.996;4.458;2022-10-04T13:04:51;19.60;99.90
25112;DHT22;13092;51.996;4.458;2022-10-04T13:10:28;19.60;99.90
25112;DHT22;13092;51.996;4.458;2022-10-04T13:16:13;19.70;99.90
25112;DHT22;13092;51.996;4.458;2022-10-04T13:19:16;19.70;99.90
25112;DHT22;13092;51.996;4.458;2022-10-04T13:22:05;19.80;99.90
25112;DHT22;13092;51.996;4.458;2022-10-04T13:24:43;19.90;99.90
25112;DHT22;13092;51.996;4.458;2022-10-04T13:27:28;20.00;99.90
25112;DHT22;13092;51.996;4.458;2022-10-04T13:30:00;20.10;99.90
25112;DHT22;13092;51.996;4.458;2022-10-04T13:32:39;20.20;99.90
25112;DHT22;13092;51.996;4.458;2022-10-04T13:35:14;20.20;99.90
25112;DHT22;13092;51.996;4.458;2022-10-04T13:38:00;20.30;99.90
25112;DHT22;13092;51.996;4.458;2022-10-04T13:40:52;20.30;99.90
25112;DHT22;13092;51.996;4.458;2022-10-04T13:43:39;20.40;99.90
25112;DHT22;13092;51.996;4.458;2022-10-04T13:46:18;20.40;99.90
25112;DHT22;13092;51.996;4.458;2022-10-04T13:49:00;20.40;99.90
25112;DHT22;13092;51.996;4.458;2022-10-04T13:51:45;20.40;99.90
25112;DHT22;13092;51.996;4.458;2022-10-04T13:54:23;20.50;99.90
25112;DHT22;13092;51.996;4.458;2022-10-04T13:57:19;20.40;99.90
25112;DHT22;13092;51.996;4.458;2022-10-04T13:59:52;20.40;99.90
25112;DHT22;13092;51.996;4.458;2022-10-04T14:03:00;20.40;99.90
25112;DHT22;13092;51.996;4.458;2022-10-04T14:05:55;20.40;99.90
25112;DHT22;13092;51.996;4.458;2022-10-04T14:08:48;20.30;99.90
25112;DHT22;13092;51.996;4.458;2022-10-04T14:11:37;20.30;99.90
25112;DHT22;13092;51.996;4.458;2022-10-04T14:17:32;20.40;99.90
25112;DHT22;13092;51.996;4.458;2022-10-04T14:26:38;20.40;99.90
25112;DHT22;13092;51.996;4.458;2022-10-04T14:29:32;20.30;99.90
25112;DHT22;13092;51.996;4.458;2022-10-04T14:32:42;20.30;99.90
25112;DHT22;13092;51.996;4.458;2022-10-04T14:35:26;20.30;99.90
25112;DHT22;13092;51.996;4.458;2022-10-04T14:38:37;20.20;99.90
25112;DHT22;13092;51.996;4.458;2022-10-04T14:41:43;20.10;99.90
25112;DHT22;13092;51.996;4.458;2022-10-04T14:50:26;20.10;99.90
25112;DHT22;13092;51.996;4.458;2022-10-04T14:53:09;20.00;99.90
25112;DHT22;13092;51.996;4.458;2022-10-04T14:58:51;20.00;99.90
25112;DHT22;13092;51.996;4.458;2022-10-04T15:01:26;20.00;99.90
25112;DHT22;13092;51.996;4.458;2022-10-04T15:04:06;20.10;99.90
25112;DHT22;13092;51.996;4.458;2022-10-04T15:06:40;20.00;99.90
25112;DHT22;13092;51.996;4.458;2022-10-04T15:09:36;20.00;99.90
25112;DHT22;13092;51.996;4.458;2022-10-04T15:12:45;20.00;99.90
25112;DHT22;13092;51.996;4.458;2022-10-04T15:15:49;20.00;99.90
25112;DHT22;13092;51.996;4.458;2022-10-04T15:18:38;20.00;99.90
25112;DHT22;13092;51.996;4.458;2022-10-04T15:21:29;19.90;99.90
25112;DHT22;13092;51.996;4.458;2022-10-04T15:24:21;19.90;99.90
25112;DHT22;13092;51.996;4.458;2022-10-04T15:29:45;19.80;99.90
25112;DHT22;13092;51.996;4.458;2022-10-04T15:32:25;19.80;99.90
25112;DHT22;13092;51.996;4.458;2022-10-04T15:35:16;19.70;99.90
25112;DHT22;13092;51.996;4.458;2022-10-04T15:37:53;19.70;99.90
25112;DHT22;13092;51.996;4.458;2022-10-04T15:40:34;19.70;99.90
25112;DHT22;13092;51.996;4.458;2022-10-04T15:43:19;19.70;99.90
25112;DHT22;13092;51.996;4.458;2022-10-04T15:46:24;19.60;99.90
25112;DHT22;13092;51.996;4.458;2022-10-04T15:49:07;19.60;99.90
25112;DHT22;13092;51.996;4.458;2022-10-04T15:51:59;19.50;99.90
25112;DHT22;13092;51.996;4.458;2022-10-04T15:54:46;19.50;99.90
25112;DHT22;13092;51.996;4.458;2022-10-04T15:57:33;19.30;99.90
25112;DHT22;13092;51.996;4.458;2022-10-04T16:00:11;19.30;99.90
25112;DHT22;13092;51.996;4.458;2022-10-04T16:03:03;19.30;99.90
25112;DHT22;13092;51.996;4.458;2022-10-04T16:05:38;19.30;99.90
25112;DHT22;13092;51.996;4.458;2022-10-04T16:08:30;19.30;99.90
25112;DHT22;13092;51.996;4.458;2022-10-04T16:11:22;19.20;99.90
25112;DHT22;13092;51.996;4.458;2022-10-04T16:17:16;19.20;99.90
25112;DHT22;13092;51.996;4.458;2022-10-04T16:20:02;19.20;99.90
25112;DHT22;13092;51.996;4.458;2022-10-04T16:22:39;19.10;99.90
25112;DHT22;13092;51.996;4.458;2022-10-04T16:25:36;19.10;99.90
25112;DHT22;13092;51.996;4.458;2022-10-04T16:28:10;19.10;99.90
25112;DHT22;13092;51.996;4.458;2022-10-04T16:30:45;19.10;99.90
25112;DHT22;13092;51.996;4.458;2022-10-04T16:33:29;19.00;99.90
25112;DHT22;13092;51.996;4.458;2022-10-04T16:36:07;19.10;99.90
25112;DHT22;13092;51.996;4.458;2022-10-04T16:38:44;19.10;99.90
25112;DHT22;13092;51.996;4.458;2022-10-04T16:41:36;19.00;99.90
25112;DHT22;13092;51.996;4.458;2022-10-04T16:44:22;19.00;99.90
25112;DHT22;13092;51.996;4.458;2022-10-04T16:46:56;19.00;99.90
25112;DHT22;13092;51.996;4.458;2022-10-04T16:49:31;19.00;99.90
25112;DHT22;13092;51.996;4.458;2022-10-04T16:52:27;19.00;99.90
25112;DHT22;13092;51.996;4.458;2022-10-04T16:55:23;19.00;99.90
25112;DHT22;13092;51.996;4.458;2022-10-04T17:04:23;18.90;99.90
25112;DHT22;13092;51.996;4.458;2022-10-04T17:06:58;18.90;99.90
25112;DHT22;13092;51.996;4.458;2022-10-04T17:09:28;18.90;99.90
25112;DHT22;13092;51.996;4.458;2022-10-04T17:12:15;18.90;99.90
25112;DHT22;13092;51.996;4.458;2022-10-04T17:15:10;19.00;99.90
25112;DHT22;13092;51.996;4.458;2022-10-04T17:17:52;18.90;99.90
25112;DHT22;13092;51.996;4.458;2022-10-04T17:20:36;18.80;99.90
25112;DHT22;13092;51.996;4.458;2022-10-04T17:23:23;18.80;99.90
25112;DHT22;13092;51.996;4.458;2022-10-04T17:26:04;18.80;99.90
25112;DHT22;13092;51.996;4.458;2022-10-04T17:28:47;18.80;99.90
25112;DHT22;13092;51.996;4.458;2022-10-04T17:31:25;18.90;99.90
25112;DHT22;13092;51.996;4.458;2022-10-04T17:34:01;18.80;99.90
25112;DHT22;13092;51.996;4.458;2022-10-04T17:36:36;18.80;99.90
25112;DHT22;13092;51.996;4.458;2022-10-04T17:39:26;18.80;99.90
25112;DHT22;13092;51.996;4.458;2022-10-04T17:42:10;18.80;99.90
25112;DHT22;13092;51.996;4.458;2022-10-04T17:45:03;18.80;99.90
25112;DHT22;13092;51.996;4.458;2022-10-04T17:47:40;18.70;99.90
25112;DHT22;13092;51.996;4.458;2022-10-04T17:50:34;18.70;99.90
25112;DHT22;13092;51.996;4.458;2022-10-04T17:53:27;18.70;99.90
25112;DHT22;13092;51.996;4.458;2022-10-04T17:56:25;18.80;99.90
25112;DHT22;13092;51.996;4.458;2022-10-04T17:58:56;18.80;99.90
25112;DHT22;13092;51.996;4.458;2022-10-04T18:01:29;18.70;99.90
25112;DHT22;13092;51.996;4.458;2022-10-04T18:04:06;18.70;99.90
25112;DHT22;13092;51.996;4.458;2022-10-04T18:06:39;18.80;99.90
25112;DHT22;13092;51.996;4.458;2022-10-04T18:09:21;18.70;99.90
25112;DHT22;13092;51.996;4.458;2022-10-04T18:11:53;18.70;99.90
25112;DHT22;13092;51.996;4.458;2022-10-04T18:14:49;18.70;99.90
25112;DHT22;13092;51.996;4.458;2022-10-04T18:17:28;18.70;99.90
25112;DHT22;13092;51.996;4.458;2022-10-04T18:22:58;18.70;99.90